createdAt,value
2016-12-18T00:00:03.036Z,2.87
2016-12-18T00:01:02.376Z,2.88
2016-12-18T00:02:02.696Z,2.83
2016-12-18T00:03:02.696Z,2.82
2016-12-18T00:04:03.044Z,2.83
2016-12-18T00:05:02.684Z,2.88
2016-12-18T00:06:02.676Z,2.88
2016-12-18T00:07:02.680Z,2.8
2016-12-18T00:08:02.664Z,2.87
2016-12-18T00:09:02.340Z,2.93
2016-12-18T00:10:02.664Z,2.85
2016-12-18T00:11:02.660Z,2.95
2016-12-18T00:12:02.660Z,2.87
2016-12-18T00:13:02.648Z,2.94
2016-12-18T00:14:02.648Z,2.95
2016-12-18T00:15:02.644Z,2.93
2016-12-18T00:16:02.308Z,3
2016-12-18T00:17:02.628Z,3
2016-12-18T00:18:02.957Z,3.03
2016-12-18T00:19:03.152Z,2.98
2016-12-18T00:20:02.948Z,2.94
2016-12-18T00:21:02.289Z,2.87
2016-12-18T00:22:02.608Z,2.93
2016-12-18T00:23:02.289Z,2.94
2016-12-18T00:24:02.928Z,2.83
2016-12-18T00:25:02.932Z,2.8
2016-12-18T00:26:02.924Z,2.87
2016-12-18T00:27:02.605Z,2.77
2016-12-18T00:28:02.588Z,2.94
2016-12-18T00:29:02.585Z,2.72
2016-12-18T00:30:02.577Z,2.72
2016-12-18T00:31:02.912Z,2.68
2016-12-18T00:32:02.900Z,2.73
2016-12-18T00:33:02.893Z,2.68
2016-12-18T00:34:02.237Z,2.68
2016-12-18T00:35:02.565Z,2.68
2016-12-18T00:36:02.229Z,2.64
2016-12-18T00:37:02.553Z,2.57
2016-12-18T00:38:02.877Z,2.65
2016-12-18T00:39:02.869Z,2.59
2016-12-18T00:40:02.541Z,2.46
2016-12-18T00:41:02.861Z,2.44
2016-12-18T00:42:02.849Z,2.64
2016-12-18T00:43:08.787Z,2.61
2016-12-18T00:44:02.517Z,2.41
2016-12-18T00:45:02.509Z,2.44
2016-12-18T00:46:02.530Z,2.65
2016-12-18T00:47:02.850Z,2.58
2016-12-18T00:48:02.513Z,2.55
2016-12-18T00:49:02.505Z,2.61
2016-12-18T00:50:02.501Z,2.64
2016-12-18T00:51:02.169Z,2.55
2016-12-18T00:52:02.485Z,2.64
2016-12-18T00:53:02.814Z,2.64
2016-12-18T00:54:02.813Z,2.58
2016-12-18T00:55:02.482Z,2.52
2016-12-18T00:56:02.474Z,2.58
2016-12-18T00:57:02.466Z,2.61
2016-12-18T00:58:02.462Z,2.57
2016-12-18T00:59:02.462Z,2.61
2016-12-18T01:00:02.458Z,2.58
2016-12-18T01:01:02.778Z,2.58
2016-12-18T01:02:02.454Z,2.55
2016-12-18T01:03:02.778Z,2.46
2016-12-18T01:04:02.766Z,2.57
2016-12-18T01:05:02.430Z,2.51
2016-12-18T01:06:02.766Z,2.54
2016-12-18T01:07:02.763Z,2.52
2016-12-18T01:08:02.426Z,2.47
2016-12-18T01:09:02.743Z,2.57
2016-12-18T01:10:02.754Z,2.59
2016-12-18T01:11:02.426Z,2.55
2016-12-18T01:12:02.402Z,2.61
2016-12-18T01:13:02.402Z,2.59
2016-12-18T01:14:02.394Z,2.59
2016-12-18T01:15:02.711Z,2.52
2016-12-18T01:16:02.722Z,2.62
2016-12-18T01:17:02.722Z,2.52
2016-12-18T01:18:02.382Z,2.46
2016-12-18T01:19:02.375Z,2.55
2016-12-18T01:20:02.375Z,2.59
2016-12-18T01:21:02.375Z,2.57
2016-12-18T01:22:02.371Z,2.59
2016-12-18T01:23:02.371Z,2.52
2016-12-18T01:24:02.691Z,2.64
2016-12-18T01:25:02.347Z,2.61
2016-12-18T01:26:02.679Z,2.62
2016-12-18T01:27:02.671Z,2.65
2016-12-18T01:28:02.663Z,2.69
2016-12-18T01:29:02.339Z,2.69
2016-12-18T01:30:02.663Z,2.65
2016-12-18T01:31:02.328Z,2.76
2016-12-18T01:32:02.651Z,2.79
2016-12-18T01:33:02.331Z,2.76
2016-12-18T01:34:02.647Z,2.85
2016-12-18T01:35:02.311Z,2.76
2016-12-18T01:36:02.311Z,2.83
2016-12-18T01:37:02.315Z,2.83
2016-12-18T01:38:02.300Z,2.85
2016-12-18T01:39:02.299Z,2.88
2016-12-18T01:40:02.291Z,2.95
2016-12-18T01:41:02.615Z,2.87
2016-12-18T01:42:02.279Z,2.83
2016-12-18T01:43:02.612Z,2.85
2016-12-18T01:44:02.596Z,2.91
2016-12-18T01:45:02.280Z,2.83
2016-12-18T01:46:02.264Z,2.88
2016-12-18T01:47:02.268Z,2.91
2016-12-18T01:48:02.260Z,2.93
2016-12-18T01:49:02.585Z,2.87
2016-12-18T01:50:02.580Z,2.95
2016-12-18T01:51:02.248Z,2.97
2016-12-18T01:52:02.244Z,2.83
2016-12-18T01:53:02.240Z,2.9
2016-12-18T01:54:02.564Z,2.97
2016-12-18T01:55:02.560Z,2.87
2016-12-18T01:56:02.228Z,2.91
2016-12-18T01:57:02.548Z,2.87
2016-12-18T01:58:02.548Z,2.97
2016-12-18T01:59:02.549Z,2.9
2016-12-18T02:00:02.541Z,2.88
2016-12-18T02:01:02.532Z,2.83
2016-12-18T02:02:02.200Z,2.93
2016-12-18T02:03:02.200Z,2.9
2016-12-18T02:04:02.197Z,2.93
2016-12-18T02:05:02.189Z,2.94
2016-12-18T02:06:02.181Z,2.91
2016-12-18T02:07:02.189Z,2.91
2016-12-18T02:08:02.505Z,2.8
2016-12-18T02:09:02.181Z,2.85
2016-12-18T02:10:02.501Z,2.91
2016-12-18T02:11:02.497Z,2.85
2016-12-18T02:12:02.489Z,3.01
2016-12-18T02:13:02.489Z,2.97
2016-12-18T02:14:02.149Z,2.98
2016-12-18T02:15:01.821Z,2.88
2016-12-18T02:16:02.149Z,2.88
2016-12-18T02:17:02.465Z,2.87
2016-12-18T02:18:02.140Z,2.9
2016-12-18T02:19:02.457Z,2.95
2016-12-18T02:20:02.465Z,2.95
2016-12-18T02:21:02.125Z,2.93
2016-12-18T02:22:02.125Z,2.9
2016-12-18T02:23:01.781Z,2.91
2016-12-18T02:24:02.109Z,3.01
2016-12-18T02:25:02.437Z,2.97
2016-12-18T02:26:01.785Z,2.95
2016-12-18T02:27:02.425Z,2.97
2016-12-18T02:28:02.100Z,2.88
2016-12-18T02:29:02.097Z,3
2016-12-18T02:30:02.421Z,2.93
2016-12-18T02:31:01.761Z,2.9
2016-12-18T02:32:01.745Z,3.05
2016-12-18T02:33:02.073Z,3.01
2016-12-18T02:34:02.073Z,3.01
2016-12-18T02:35:02.393Z,3.01
2016-12-18T02:36:02.381Z,2.95
2016-12-18T02:37:02.061Z,2.93
2016-12-18T02:38:02.381Z,3
2016-12-18T02:39:02.381Z,3.06
2016-12-18T02:40:02.373Z,3.05
2016-12-18T02:41:02.041Z,3
2016-12-18T02:42:02.029Z,3
2016-12-18T02:43:02.361Z,3.11
2016-12-18T02:44:02.349Z,3.12
2016-12-18T02:45:02.029Z,3.03
2016-12-18T02:46:02.350Z,3.11
2016-12-18T02:47:02.013Z,3.06
2016-12-18T02:48:02.013Z,3.15
2016-12-18T02:49:02.009Z,3.06
2016-12-18T02:50:02.013Z,3.01
2016-12-18T02:51:02.330Z,3.12
2016-12-18T02:52:02.330Z,3.18
2016-12-18T02:53:02.325Z,3.13
2016-12-18T02:54:02.318Z,3.11
2016-12-18T02:55:01.979Z,3.18
2016-12-18T02:56:02.310Z,3
2016-12-18T02:57:01.978Z,3.05
2016-12-18T02:58:01.966Z,3.03
2016-12-18T02:59:01.640Z,3.03
2016-12-18T03:00:01.962Z,3
2016-12-18T03:01:01.954Z,2.97
2016-12-18T03:02:02.282Z,3
2016-12-18T03:03:02.278Z,3.01
2016-12-18T03:04:02.426Z,3.03
2016-12-18T03:05:02.262Z,3.09
2016-12-18T03:06:02.258Z,3.06
2016-12-18T03:07:01.971Z,2.94
2016-12-18T03:08:02.254Z,2.98
2016-12-18T03:09:01.918Z,2.98
2016-12-18T03:10:01.918Z,3.03
2016-12-18T03:11:01.914Z,3
2016-12-18T03:12:02.242Z,2.94
2016-12-18T03:13:01.914Z,2.97
2016-12-18T03:14:01.910Z,2.94
2016-12-18T03:15:01.903Z,2.94
2016-12-18T03:16:01.895Z,2.98
2016-12-18T03:17:01.587Z,3.03
2016-12-18T03:18:01.567Z,3.03
2016-12-18T03:19:02.215Z,2.97
2016-12-18T03:20:01.883Z,3
2016-12-18T03:21:02.205Z,2.94
2016-12-18T03:22:01.875Z,3.03
2016-12-18T03:23:01.867Z,3.01
2016-12-18T03:24:02.195Z,2.98
2016-12-18T03:25:02.195Z,2.91
2016-12-18T03:26:01.851Z,2.97
2016-12-18T03:27:01.527Z,2.97
2016-12-18T03:28:01.523Z,3.06
2016-12-18T03:29:01.844Z,3.08
2016-12-18T03:30:02.172Z,3.05
2016-12-18T03:31:02.167Z,3.01
2016-12-18T03:32:02.160Z,2.93
2016-12-18T03:33:02.160Z,2.97
2016-12-18T03:34:01.832Z,2.94
2016-12-18T03:35:02.140Z,2.93
2016-12-18T03:36:02.140Z,3.03
2016-12-18T03:37:02.136Z,2.91
2016-12-18T03:38:01.472Z,3
2016-12-18T03:39:02.124Z,2.94
2016-12-18T03:40:02.125Z,2.91
2016-12-18T03:41:01.793Z,2.91
2016-12-18T03:42:01.472Z,2.88
2016-12-18T03:43:01.788Z,2.87
2016-12-18T03:44:01.784Z,2.93
2016-12-18T03:45:01.780Z,2.93
2016-12-18T03:46:01.780Z,2.98
2016-12-18T03:47:01.444Z,2.98
2016-12-18T03:48:01.761Z,2.88
2016-12-18T03:49:01.764Z,2.9
2016-12-18T03:50:01.752Z,2.94
2016-12-18T03:51:02.088Z,2.94
2016-12-18T03:52:02.076Z,2.83
2016-12-18T03:53:01.740Z,2.88
2016-12-18T03:54:01.740Z,2.93
2016-12-18T03:55:02.064Z,2.93
2016-12-18T03:56:02.063Z,2.83
2016-12-18T03:57:01.727Z,2.88
2016-12-18T03:58:01.723Z,2.82
2016-12-18T03:59:01.396Z,2.77
2016-12-18T04:00:02.044Z,2.83
2016-12-18T04:01:02.043Z,2.9
2016-12-18T04:02:02.039Z,2.8
2016-12-18T04:03:02.031Z,2.85
2016-12-18T04:04:01.731Z,2.79
2016-12-18T04:05:02.028Z,2.85
2016-12-18T04:06:01.680Z,2.77
2016-12-18T04:07:01.687Z,2.85
2016-12-18T04:08:01.687Z,2.79
2016-12-18T04:09:02.007Z,2.77
2016-12-18T04:10:02.003Z,2.8
2016-12-18T04:11:02.000Z,2.77
2016-12-18T04:12:01.663Z,2.79
2016-12-18T04:13:01.672Z,2.79
2016-12-18T04:14:01.651Z,2.8
2016-12-18T04:15:01.976Z,2.79
2016-12-18T04:16:01.971Z,2.83
2016-12-18T04:17:01.976Z,2.79
2016-12-18T04:18:01.968Z,2.83
2016-12-18T04:19:01.627Z,2.76
2016-12-18T04:20:01.624Z,2.83
2016-12-18T04:21:01.627Z,2.79
2016-12-18T04:22:02.059Z,2.79
2016-12-18T04:23:01.624Z,2.85
2016-12-18T04:24:01.944Z,2.79
2016-12-18T04:25:01.608Z,2.76
2016-12-18T04:26:01.928Z,2.76
2016-12-18T04:27:01.284Z,2.79
2016-12-18T04:28:01.600Z,2.76
2016-12-18T04:29:01.592Z,2.72
2016-12-18T04:30:01.596Z,2.77
2016-12-18T04:31:01.916Z,2.68
2016-12-18T04:32:01.608Z,2.77
2016-12-18T04:33:01.244Z,2.68
2016-12-18T04:34:01.720Z,2.75
2016-12-18T04:35:01.568Z,2.73
2016-12-18T04:36:01.892Z,2.8
2016-12-18T04:37:01.888Z,2.62
2016-12-18T04:38:01.549Z,2.65
2016-12-18T04:39:01.884Z,2.69
2016-12-18T04:40:01.876Z,2.75
2016-12-18T04:41:01.545Z,2.69
2016-12-18T04:42:01.545Z,2.69
2016-12-18T04:43:01.533Z,2.72
2016-12-18T04:44:01.533Z,2.64
2016-12-18T04:45:01.205Z,2.69
2016-12-18T04:46:01.529Z,2.65
2016-12-18T04:47:01.848Z,2.62
2016-12-18T04:48:01.520Z,2.62
2016-12-18T04:49:01.841Z,2.59
2016-12-18T04:50:01.841Z,2.64
2016-12-18T04:51:01.825Z,2.68
2016-12-18T04:52:01.834Z,2.65
2016-12-18T04:53:01.501Z,2.52
2016-12-18T04:54:01.821Z,2.69
2016-12-18T04:55:01.813Z,2.72
2016-12-18T04:56:01.809Z,2.65
2016-12-18T04:57:01.489Z,2.59
2016-12-18T04:58:01.474Z,2.73
2016-12-18T04:59:01.465Z,2.65
2016-12-18T05:00:01.465Z,2.62
2016-12-18T05:01:01.461Z,2.64
2016-12-18T05:02:01.453Z,2.69
2016-12-18T05:03:01.781Z,2.62
2016-12-18T05:04:01.694Z,2.73
2016-12-18T05:05:01.122Z,2.7
2016-12-18T05:06:01.765Z,2.64
2016-12-18T05:07:01.441Z,2.68
2016-12-18T05:08:01.758Z,2.62
2016-12-18T05:09:01.427Z,2.68
2016-12-18T05:10:01.421Z,2.64
2016-12-18T05:11:01.741Z,2.79
2016-12-18T05:12:01.422Z,2.64
2016-12-18T05:13:01.413Z,2.77
2016-12-18T05:14:01.410Z,2.76
2016-12-18T05:15:01.413Z,2.82
2016-12-18T05:16:01.402Z,2.79
2016-12-18T05:17:01.390Z,2.82
2016-12-18T05:18:01.062Z,2.77
2016-12-18T05:19:01.742Z,2.77
2016-12-18T05:20:01.714Z,2.73
2016-12-18T05:21:01.754Z,2.79
2016-12-18T05:22:01.702Z,2.82
2016-12-18T05:23:01.694Z,2.82
2016-12-18T05:24:01.695Z,2.69
2016-12-18T05:25:01.690Z,2.7
2016-12-18T05:26:01.359Z,2.77
2016-12-18T05:27:01.350Z,2.85
2016-12-18T05:28:01.683Z,2.75
2016-12-18T05:29:01.344Z,2.68
2016-12-18T05:30:01.675Z,2.76
2016-12-18T05:31:01.663Z,2.75
2016-12-18T05:32:01.339Z,2.83
2016-12-18T05:33:01.335Z,2.79
2016-12-18T05:34:00.999Z,2.65
2016-12-18T05:35:01.319Z,2.68
2016-12-18T05:36:00.979Z,2.59
2016-12-18T05:37:01.315Z,2.68
2016-12-18T05:38:00.971Z,2.75
2016-12-18T05:39:01.300Z,2.75
2016-12-18T05:40:01.624Z,2.64
2016-12-18T05:41:01.627Z,2.7
2016-12-18T05:42:01.623Z,2.65
2016-12-18T05:43:01.291Z,2.69
2016-12-18T05:44:01.611Z,2.68
2016-12-18T05:45:01.612Z,2.62
2016-12-18T05:46:01.272Z,2.64
2016-12-18T05:47:01.600Z,2.62
2016-12-18T05:48:01.272Z,2.64
2016-12-18T05:49:01.588Z,2.68
2016-12-18T05:50:01.284Z,2.68
2016-12-18T05:51:01.268Z,2.7
2016-12-18T05:52:00.923Z,2.65
2016-12-18T05:53:01.244Z,2.58
2016-12-18T05:54:01.560Z,2.68
2016-12-18T05:55:01.232Z,2.75
2016-12-18T05:56:01.236Z,2.76
2016-12-18T05:57:01.224Z,2.69
2016-12-18T05:58:01.220Z,2.73
2016-12-18T05:59:01.225Z,2.82
2016-12-18T06:00:01.544Z,2.77
2016-12-18T06:01:01.208Z,2.65
2016-12-18T06:02:01.545Z,2.75
2016-12-18T06:03:01.201Z,2.82
2016-12-18T06:04:01.200Z,2.76
2016-12-18T06:05:01.521Z,2.8
2016-12-18T06:06:01.189Z,2.76
2016-12-18T06:07:01.198Z,2.7
2016-12-18T06:08:01.513Z,2.76
2016-12-18T06:09:01.505Z,2.82
2016-12-18T06:10:01.505Z,2.8
2016-12-18T06:11:01.165Z,2.7
2016-12-18T06:12:01.161Z,2.76
2016-12-18T06:13:01.493Z,2.85
2016-12-18T06:14:01.161Z,2.88
2016-12-18T06:15:01.482Z,2.82
2016-12-18T06:16:01.149Z,2.83
2016-12-18T06:17:01.146Z,2.88
2016-12-18T06:18:01.465Z,2.77
2016-12-18T06:19:01.141Z,2.87
2016-12-18T06:20:00.805Z,2.82
2016-12-18T06:21:01.458Z,2.88
2016-12-18T06:22:01.121Z,2.8
2016-12-18T06:23:01.125Z,2.85
2016-12-18T06:24:01.445Z,2.87
2016-12-18T06:25:00.785Z,2.8
2016-12-18T06:26:01.105Z,2.77
2016-12-18T06:27:01.441Z,2.8
2016-12-18T06:28:01.429Z,2.85
2016-12-18T06:29:01.094Z,2.77
2016-12-18T06:30:01.413Z,2.76
2016-12-18T06:31:01.081Z,2.73
2016-12-18T06:32:00.757Z,2.77
2016-12-18T06:33:01.077Z,2.76
2016-12-18T06:34:01.077Z,2.69
2016-12-18T06:35:01.397Z,2.73
2016-12-18T06:36:01.397Z,2.69
2016-12-18T06:37:01.389Z,2.79
2016-12-18T06:38:01.376Z,2.83
2016-12-18T06:39:01.049Z,2.7
2016-12-18T06:40:01.049Z,2.7
2016-12-18T06:41:01.073Z,2.69
2016-12-18T06:42:01.373Z,2.72
2016-12-18T06:43:01.365Z,2.69
2016-12-18T06:44:01.029Z,2.65
2016-12-18T06:45:01.017Z,2.69
2016-12-18T06:46:01.364Z,2.72
2016-12-18T06:47:01.357Z,2.77
2016-12-18T06:48:01.345Z,2.7
2016-12-18T06:49:01.013Z,2.83
2016-12-18T06:50:01.329Z,2.69
2016-12-18T06:51:01.001Z,2.79
2016-12-18T06:52:01.325Z,2.7
2016-12-18T06:53:00.993Z,2.64
2016-12-18T06:54:00.985Z,2.76
2016-12-18T06:55:00.989Z,2.65
2016-12-18T06:56:01.305Z,2.79
2016-12-18T06:57:01.309Z,2.69
2016-12-18T06:58:01.297Z,2.62
2016-12-18T06:59:01.301Z,2.73
2016-12-18T07:00:00.961Z,2.7
2016-12-18T07:01:00.961Z,2.8
2016-12-18T07:02:00.950Z,2.65
2016-12-18T07:03:01.273Z,2.77
2016-12-18T07:04:00.617Z,2.82
2016-12-18T07:05:00.945Z,2.76
2016-12-18T07:06:01.270Z,2.76
2016-12-18T07:07:01.261Z,2.75
2016-12-18T07:08:00.929Z,2.82
2016-12-18T07:09:00.597Z,2.76
2016-12-18T07:10:00.917Z,2.8
2016-12-18T07:11:00.921Z,2.8
2016-12-18T07:12:00.585Z,2.82
2016-12-18T07:13:00.910Z,2.76
2016-12-18T07:14:00.905Z,2.8
2016-12-18T07:15:00.574Z,2.68
2016-12-18T07:16:00.897Z,2.8
2016-12-18T07:17:00.890Z,2.68
2016-12-18T07:18:00.881Z,2.77
2016-12-18T07:19:00.881Z,2.69
2016-12-18T07:20:01.205Z,2.79
2016-12-18T07:21:00.874Z,2.76
2016-12-18T07:22:00.869Z,2.79
2016-12-18T07:23:00.861Z,2.91
2016-12-18T07:24:00.861Z,2.87
2016-12-18T07:25:00.858Z,2.87
2016-12-18T07:26:00.850Z,2.93
2016-12-18T07:27:01.181Z,2.85
2016-12-18T07:28:00.850Z,2.87
2016-12-18T07:29:00.834Z,2.91
2016-12-18T07:30:01.170Z,2.91
2016-12-18T07:31:00.834Z,2.88
2016-12-18T07:32:00.842Z,2.95
2016-12-18T07:33:00.826Z,2.94
2016-12-18T07:34:01.149Z,3
2016-12-18T07:35:01.142Z,2.94
2016-12-18T07:36:01.170Z,2.98
2016-12-18T07:37:01.142Z,3.01
2016-12-18T07:38:01.129Z,3.01
2016-12-18T07:39:01.121Z,3
2016-12-18T07:40:00.789Z,3.13
2016-12-18T07:41:01.114Z,3.09
2016-12-18T07:42:01.109Z,3.15
2016-12-18T07:43:01.109Z,3.15
2016-12-18T07:44:00.778Z,3.11
2016-12-18T07:45:00.780Z,3.05
2016-12-18T07:46:00.773Z,3.08
2016-12-18T07:47:00.769Z,3.13
2016-12-18T07:48:00.765Z,3.13
2016-12-18T07:49:00.757Z,3.18
2016-12-18T07:50:01.078Z,3.18
2016-12-18T07:51:00.417Z,3.21
2016-12-18T07:52:00.742Z,3.31
2016-12-18T07:53:01.066Z,3.22
2016-12-18T07:54:00.733Z,3.29
2016-12-18T07:55:01.058Z,3.16
2016-12-18T07:56:01.053Z,3.37
2016-12-18T07:57:00.724Z,3.4
2016-12-18T07:58:00.721Z,3.27
2016-12-18T07:59:00.716Z,3.24
2016-12-18T08:00:00.708Z,3.45
2016-12-18T08:01:01.032Z,3.37
2016-12-18T08:02:01.024Z,3.34
2016-12-18T08:03:01.024Z,3.31
2016-12-18T08:04:00.692Z,3.37
2016-12-18T08:05:00.364Z,3.34
2016-12-18T08:06:00.356Z,3.55
2016-12-18T08:07:00.679Z,3.46
2016-12-18T08:08:01.008Z,3.49
2016-12-18T08:09:00.995Z,3.56
2016-12-18T08:10:00.668Z,3.61
2016-12-18T08:11:00.991Z,3.7
2016-12-18T08:12:00.992Z,3.64
2016-12-18T08:13:00.655Z,3.7
2016-12-18T08:14:00.652Z,3.64
2016-12-18T08:15:00.648Z,3.77
2016-12-18T08:16:00.973Z,3.78
2016-12-18T08:17:00.628Z,3.78
2016-12-18T08:18:00.304Z,3.76
2016-12-18T08:19:00.631Z,3.92
2016-12-18T08:20:00.952Z,3.84
2016-12-18T08:21:00.952Z,3.76
2016-12-18T08:22:00.944Z,3.94
2016-12-18T08:23:00.616Z,3.85
2016-12-18T08:24:00.608Z,3.88
2016-12-18T08:25:00.604Z,3.89
2016-12-18T08:26:00.932Z,3.95
2016-12-18T08:27:00.927Z,4.02
2016-12-18T08:28:00.924Z,3.95
2016-12-18T08:29:00.912Z,4.02
2016-12-18T08:30:00.256Z,4.06
2016-12-18T08:31:00.913Z,3.95
2016-12-18T08:32:00.896Z,3.95
2016-12-18T08:33:00.569Z,4.03
2016-12-18T08:34:00.893Z,4
2016-12-18T08:35:00.604Z,3.99
2016-12-18T08:36:00.885Z,4
2016-12-18T08:37:00.553Z,4
2016-12-18T08:38:00.557Z,4.06
2016-12-18T08:39:00.873Z,4.07
2016-12-18T08:40:00.545Z,4.12
2016-12-18T08:41:00.549Z,4.14
2016-12-18T08:42:00.541Z,4.14
2016-12-18T08:43:00.866Z,4.12
2016-12-18T08:44:00.865Z,4.13
2016-12-18T08:45:00.562Z,4.16
2016-12-18T08:46:00.522Z,4.24
2016-12-18T08:47:00.190Z,4.24
2016-12-18T08:48:00.506Z,4.34
2016-12-18T08:49:00.506Z,4.39
2016-12-18T08:50:00.838Z,4.48
2016-12-18T08:51:00.494Z,4.48
2016-12-18T08:52:00.818Z,4.52
2016-12-18T08:53:00.170Z,4.57
2016-12-18T08:54:00.814Z,4.57
2016-12-18T08:55:00.818Z,4.58
2016-12-18T08:56:00.482Z,4.53
2016-12-18T08:57:00.483Z,4.61
2016-12-18T08:58:00.479Z,4.61
2016-12-18T08:59:00.467Z,4.63
2016-12-18T09:00:00.466Z,4.66
2016-12-18T09:01:00.465Z,4.74
2016-12-18T09:02:00.784Z,4.64
2016-12-18T09:03:00.787Z,4.64
2016-12-18T09:04:00.447Z,4.71
2016-12-18T09:05:00.123Z,4.76
2016-12-18T09:06:00.767Z,4.83
2016-12-18T09:07:00.443Z,4.83
2016-12-18T09:08:00.772Z,4.76
2016-12-18T09:09:00.757Z,4.89
2016-12-18T09:10:00.428Z,4.86
2016-12-18T09:11:00.752Z,4.9
2016-12-18T09:12:00.740Z,4.97
2016-12-18T09:13:00.736Z,5.01
2016-12-18T09:14:00.736Z,5
2016-12-18T09:15:00.736Z,4.92
2016-12-18T09:16:00.408Z,4.98
2016-12-18T09:17:00.720Z,5.05
2016-12-18T09:18:00.396Z,5.01
2016-12-18T09:19:00.720Z,5.02
2016-12-18T09:20:00.592Z,5.07
2016-12-18T09:21:00.385Z,5.22
2016-12-18T09:22:00.380Z,5.22
2016-12-18T09:23:00.701Z,5.37
2016-12-18T09:24:00.373Z,5.47
2016-12-18T09:25:00.697Z,5.51
2016-12-18T09:26:00.693Z,5.64
2016-12-18T09:27:00.365Z,5.58
2016-12-18T09:28:00.362Z,5.64
2016-12-18T09:29:00.361Z,5.67
2016-12-18T09:30:00.361Z,5.7
2016-12-18T09:31:00.682Z,5.73
2016-12-18T09:32:00.382Z,5.77
2016-12-18T09:33:00.018Z,5.67
2016-12-18T09:34:00.342Z,5.8
2016-12-18T09:35:00.663Z,5.79
2016-12-18T09:36:00.658Z,5.72
2016-12-18T09:37:00.678Z,5.8
2016-12-18T09:38:00.650Z,5.88
2016-12-18T09:39:00.325Z,5.88
2016-12-18T09:40:00.322Z,6.12
2016-12-18T09:41:00.307Z,6.29
2016-12-18T09:42:00.315Z,6.54
2016-12-18T09:43:00.635Z,6.68
2016-12-18T09:44:00.631Z,6.77
2016-12-18T09:45:00.627Z,6.74
2016-12-18T09:45:59.998Z,6.96
2016-12-18T09:47:00.615Z,6.93
2016-12-18T09:48:00.615Z,6.89
2016-12-18T09:49:00.615Z,6.96
2016-12-18T09:50:00.611Z,6.92
2016-12-18T09:51:00.284Z,6.85
2016-12-18T09:52:00.284Z,6.7
2016-12-18T09:53:00.596Z,6.6
2016-12-18T09:54:00.596Z,6.6
2016-12-18T09:55:00.592Z,6.53
2016-12-18T09:56:00.588Z,6.54
2016-12-18T09:57:00.596Z,6.52
2016-12-18T09:58:00.584Z,6.49
2016-12-18T09:59:00.264Z,6.49
2016-12-18T10:00:00.248Z,6.52
2016-12-18T10:01:00.246Z,6.54
2016-12-18T10:02:00.240Z,6.54
2016-12-18T10:03:00.245Z,6.53
2016-12-18T10:04:00.241Z,6.44
2016-12-18T10:05:00.557Z,6.54
2016-12-18T10:06:00.556Z,6.47
2016-12-18T10:07:00.224Z,6.39
2016-12-18T10:08:00.557Z,6.41
2016-12-18T10:09:00.221Z,6.32
2016-12-18T10:10:00.217Z,6.32
2016-12-18T10:11:00.217Z,6.22
2016-12-18T10:12:00.205Z,6.25
2016-12-18T10:13:00.209Z,6.34
2016-12-18T10:14:00.526Z,6.29
2016-12-18T10:15:00.525Z,6.25
2016-12-18T10:16:00.193Z,6.32
2016-12-18T10:17:00.517Z,6.35
2016-12-18T10:18:00.186Z,6.34
2016-12-18T10:19:00.182Z,6.41
2016-12-18T10:20:00.510Z,6.34
2016-12-18T10:21:00.513Z,6.39
2016-12-18T10:22:00.506Z,6.52
2016-12-18T10:23:00.178Z,6.59
2016-12-18T10:24:00.502Z,6.6
2016-12-18T10:25:00.642Z,6.74
2016-12-18T10:26:00.498Z,6.72
2016-12-18T10:27:00.490Z,6.9
2016-12-18T10:28:00.490Z,7
2016-12-18T10:29:00.146Z,7.05
2016-12-18T10:30:00.158Z,7.19
2016-12-18T10:31:00.154Z,7.15
2016-12-18T10:32:00.478Z,7.21
2016-12-18T10:33:00.467Z,7.15
2016-12-18T10:34:00.463Z,7.23
2016-12-18T10:35:00.138Z,7.37
2016-12-18T10:36:00.139Z,7.4
2016-12-18T10:37:00.131Z,7.46
2016-12-18T10:37:59.803Z,7.53
2016-12-18T10:39:00.455Z,7.64
2016-12-18T10:40:00.455Z,7.77
2016-12-18T10:41:00.435Z,7.8
2016-12-18T10:42:00.151Z,7.9
2016-12-18T10:43:00.443Z,7.99
2016-12-18T10:44:00.435Z,7.98
2016-12-18T10:45:00.439Z,8.08
2016-12-18T10:45:59.779Z,8.09
2016-12-18T10:47:00.103Z,8.08
2016-12-18T10:48:00.427Z,8.13
2016-12-18T10:49:00.091Z,8.14
2016-12-18T10:50:00.095Z,8.23
2016-12-18T10:51:00.097Z,8.26
2016-12-18T10:52:00.427Z,8.28
2016-12-18T10:53:00.075Z,8.31
2016-12-18T10:54:00.075Z,8.35
2016-12-18T10:55:00.075Z,8.42
2016-12-18T10:56:00.075Z,8.56
2016-12-18T10:57:00.067Z,8.64
2016-12-18T10:58:00.067Z,8.72
2016-12-18T10:59:00.075Z,8.74
2016-12-18T11:00:00.059Z,8.74
2016-12-18T11:01:00.387Z,8.71
2016-12-18T11:02:00.063Z,8.72
2016-12-18T11:03:00.383Z,8.54
2016-12-18T11:04:00.051Z,8.49
2016-12-18T11:05:00.047Z,8.5
2016-12-18T11:06:00.375Z,8.54
2016-12-18T11:07:00.371Z,8.53
2016-12-18T11:07:59.751Z,8.44
2016-12-18T11:09:00.371Z,8.44
2016-12-18T11:10:00.363Z,8.36
2016-12-18T11:11:00.031Z,8.34
2016-12-18T11:12:00.363Z,8.31
2016-12-18T11:13:00.359Z,8.27
2016-12-18T11:14:00.359Z,8.27
2016-12-18T11:15:00.354Z,8.2
2016-12-18T11:16:00.023Z,8.2
2016-12-18T11:17:00.347Z,8.2
2016-12-18T11:18:00.011Z,8.09
2016-12-18T11:19:00.339Z,8.16
2016-12-18T11:20:00.010Z,8.14
2016-12-18T11:21:00.339Z,8.16
2016-12-18T11:21:59.994Z,8.08
2016-12-18T11:22:59.995Z,8.13
2016-12-18T11:23:59.999Z,8.06
2016-12-18T11:25:00.323Z,8.09
2016-12-18T11:26:00.319Z,8.13
2016-12-18T11:27:00.322Z,8.18
2016-12-18T11:27:59.986Z,8.24
2016-12-18T11:29:00.315Z,8.31
2016-12-18T11:29:59.982Z,8.36
2016-12-18T11:31:00.311Z,8.35
2016-12-18T11:31:59.970Z,8.35
2016-12-18T11:33:00.303Z,8.35
2016-12-18T11:33:59.970Z,8.36
2016-12-18T11:34:59.962Z,8.34
2016-12-18T11:36:00.298Z,8.34
2016-12-18T11:37:00.294Z,8.38
2016-12-18T11:38:00.294Z,8.24
2016-12-18T11:39:00.291Z,8.17
2016-12-18T11:39:59.622Z,8.08
2016-12-18T11:40:59.955Z,8.09
2016-12-18T11:42:00.271Z,8.16
2016-12-18T11:42:59.955Z,8.17
2016-12-18T11:44:00.275Z,8.23
2016-12-18T11:45:00.271Z,8.21
2016-12-18T11:45:59.942Z,8.27
2016-12-18T11:46:59.939Z,8.36
2016-12-18T11:47:59.608Z,8.39
2016-12-18T11:49:00.255Z,8.38
2016-12-18T11:49:59.931Z,8.41
2016-12-18T11:50:59.607Z,8.49
2016-12-18T11:52:00.251Z,8.44
2016-12-18T11:52:59.921Z,8.42
2016-12-18T11:53:59.594Z,8.39
2016-12-18T11:55:00.243Z,8.35
2016-12-18T11:55:59.912Z,8.31
2016-12-18T11:56:59.916Z,8.49
2016-12-18T11:57:59.592Z,8.42
2016-12-18T11:59:00.232Z,8.56
2016-12-18T11:59:59.904Z,8.45
2016-12-18T12:01:00.232Z,8.46
2016-12-18T12:02:00.220Z,8.39
2016-12-18T12:02:59.572Z,8.39
2016-12-18T12:03:59.892Z,8.39
2016-12-18T12:04:59.576Z,8.44
2016-12-18T12:05:59.560Z,8.44
2016-12-18T12:07:00.213Z,8.46
2016-12-18T12:07:59.888Z,8.44
2016-12-18T12:08:59.556Z,8.36
2016-12-18T12:10:00.212Z,8.27
2016-12-18T12:10:59.880Z,8.16
2016-12-18T12:11:59.873Z,8.03
2016-12-18T12:13:00.197Z,8.02
2016-12-18T12:14:00.204Z,7.98
2016-12-18T12:14:59.865Z,7.9
2016-12-18T12:15:59.865Z,7.87
2016-12-18T12:17:00.189Z,7.95
2016-12-18T12:17:59.853Z,8.03
2016-12-18T12:19:00.189Z,7.99
2016-12-18T12:19:59.853Z,8.03
2016-12-18T12:20:59.849Z,8.03
2016-12-18T12:22:00.173Z,8.02
2016-12-18T12:22:59.849Z,8.14
2016-12-18T12:23:59.841Z,8.24
2016-12-18T12:25:00.173Z,8.32
2016-12-18T12:25:59.841Z,8.38
2016-12-18T12:26:59.833Z,8.49
2016-12-18T12:28:00.166Z,8.52
2016-12-18T12:29:00.162Z,8.63
2016-12-18T12:29:59.826Z,8.71
2016-12-18T12:31:00.150Z,8.71
2016-12-18T12:32:00.150Z,8.71
2016-12-18T12:33:00.151Z,8.56
2016-12-18T12:34:00.152Z,8.6
2016-12-18T12:35:00.146Z,8.61
2016-12-18T12:35:59.814Z,8.56
2016-12-18T12:36:59.810Z,8.6
2016-12-18T12:37:59.814Z,8.56
2016-12-18T12:38:59.807Z,8.54
2016-12-18T12:40:00.131Z,8.46
2016-12-18T12:41:00.127Z,8.39
2016-12-18T12:41:59.803Z,8.34
2016-12-18T12:42:59.467Z,8.32
2016-12-18T12:43:59.791Z,8.34
2016-12-18T12:45:00.123Z,8.24
2016-12-18T12:46:00.115Z,8.18
2016-12-18T12:47:00.115Z,8.13
2016-12-18T12:48:00.112Z,8.08
2016-12-18T12:49:00.115Z,8.09
2016-12-18T12:49:59.779Z,8.02
2016-12-18T12:50:59.779Z,7.98
2016-12-18T12:51:59.771Z,7.84
2016-12-18T12:52:59.776Z,7.78
2016-12-18T12:54:00.096Z,7.75
2016-12-18T12:55:00.091Z,7.67
2016-12-18T12:56:00.128Z,7.77
2016-12-18T12:57:00.084Z,7.83
2016-12-18T12:57:59.764Z,7.75
2016-12-18T12:58:59.755Z,7.69
2016-12-18T13:00:00.076Z,7.59
2016-12-18T13:00:59.756Z,7.59
2016-12-18T13:02:00.076Z,7.48
2016-12-18T13:03:00.064Z,7.33
2016-12-18T13:04:00.068Z,7.26
2016-12-18T13:04:59.740Z,7.21
2016-12-18T13:06:00.068Z,7.15
2016-12-18T13:06:59.732Z,7.15
2016-12-18T13:08:00.064Z,7.1
2016-12-18T13:08:59.728Z,7.04
2016-12-18T13:10:00.044Z,7.07
2016-12-18T13:10:59.737Z,6.93
2016-12-18T13:11:59.725Z,6.96
2016-12-18T13:13:00.049Z,6.95
2016-12-18T13:14:00.045Z,6.9
2016-12-18T13:14:59.721Z,6.85
2016-12-18T13:15:59.709Z,6.77
2016-12-18T13:16:59.713Z,6.7
2016-12-18T13:18:00.037Z,6.62
2016-12-18T13:19:00.029Z,6.53
2016-12-18T13:19:59.697Z,6.54
2016-12-18T13:20:59.698Z,6.46
2016-12-18T13:21:59.690Z,6.54